sensor_id;sensor_type;location;lat;lon;timestamp;P1;durP1;ratioP1;P2;durP2;ratioP2
17886;SDS011;9069;52.044;7.472;2023-09-30T00:00:06;10.50;;;2.67;;
17886;SDS011;9069;52.044;7.472;2023-09-30T00:02:38;8.55;;;2.47;;
17886;SDS011;9069;52.044;7.472;2023-09-30T00:05:05;9.85;;;3.38;;
17886;SDS011;9069;52.044;7.472;2023-09-30T00:07:32;5.97;;;2.47;;
17886;SDS011;9069;52.044;7.472;2023-09-30T00:09:59;6.50;;;2.60;;
17886;SDS011;9069;52.044;7.472;2023-09-30T00:12:26;10.77;;;2.70;;
17886;SDS011;9069;52.044;7.472;2023-09-30T00:14:53;6.10;;;2.55;;
17886;SDS011;9069;52.044;7.472;2023-09-30T00:17:20;12.68;;;2.78;;
17886;SDS011;9069;52.044;7.472;2023-09-30T00:19:47;9.18;;;3.13;;
17886;SDS011;9069;52.044;7.472;2023-09-30T00:22:15;9.15;;;2.78;;
17886;SDS011;9069;52.044;7.472;2023-09-30T00:24:41;6.40;;;2.35;;
17886;SDS011;9069;52.044;7.472;2023-09-30T00:27:08;6.90;;;2.60;;
17886;SDS011;9069;52.044;7.472;2023-09-30T00:29:35;9.90;;;2.35;;
17886;SDS011;9069;52.044;7.472;2023-09-30T00:32:02;11.05;;;2.58;;
17886;SDS011;9069;52.044;7.472;2023-09-30T00:34:33;12.38;;;2.45;;
17886;SDS011;9069;52.044;7.472;2023-09-30T00:37:01;7.55;;;2.13;;
17886;SDS011;9069;52.044;7.472;2023-09-30T00:39:28;6.28;;;2.30;;
17886;SDS011;9069;52.044;7.472;2023-09-30T00:41:57;7.43;;;2.53;;
17886;SDS011;9069;52.044;7.472;2023-09-30T00:44:25;10.20;;;2.85;;
17886;SDS011;9069;52.044;7.472;2023-09-30T00:46:53;8.98;;;2.63;;
17886;SDS011;9069;52.044;7.472;2023-09-30T00:49:24;6.90;;;3.20;;
17886;SDS011;9069;52.044;7.472;2023-09-30T00:51:52;11.60;;;2.70;;
17886;SDS011;9069;52.044;7.472;2023-09-30T00:54:20;14.50;;;2.63;;
17886;SDS011;9069;52.044;7.472;2023-09-30T00:56:49;7.22;;;2.30;;
17886;SDS011;9069;52.044;7.472;2023-09-30T00:59:17;8.13;;;2.78;;
17886;SDS011;9069;52.044;7.472;2023-09-30T01:01:46;3.80;;;2.20;;
17886;SDS011;9069;52.044;7.472;2023-09-30T01:04:14;6.30;;;2.63;;
17886;SDS011;9069;52.044;7.472;2023-09-30T01:06:41;7.88;;;2.55;;
17886;SDS011;9069;52.044;7.472;2023-09-30T01:09:08;6.15;;;2.55;;
17886;SDS011;9069;52.044;7.472;2023-09-30T01:11:36;6.28;;;2.50;;
17886;SDS011;9069;52.044;7.472;2023-09-30T01:14:03;7.65;;;2.45;;
17886;SDS011;9069;52.044;7.472;2023-09-30T01:16:30;8.82;;;2.88;;
17886;SDS011;9069;52.044;7.472;2023-09-30T01:18:56;5.65;;;2.90;;
17886;SDS011;9069;52.044;7.472;2023-09-30T01:21:24;10.55;;;3.33;;
17886;SDS011;9069;52.044;7.472;2023-09-30T01:23:54;9.25;;;3.40;;
17886;SDS011;9069;52.044;7.472;2023-09-30T01:26:21;7.63;;;2.72;;
17886;SDS011;9069;52.044;7.472;2023-09-30T01:28:48;9.45;;;3.05;;
17886;SDS011;9069;52.044;7.472;2023-09-30T01:31:15;13.32;;;2.88;;
17886;SDS011;9069;52.044;7.472;2023-09-30T01:33:42;7.93;;;3.33;;
17886;SDS011;9069;52.044;7.472;2023-09-30T01:36:10;11.18;;;3.20;;
17886;SDS011;9069;52.044;7.472;2023-09-30T01:38:37;8.48;;;3.13;;
17886;SDS011;9069;52.044;7.472;2023-09-30T01:41:04;9.43;;;2.42;;
17886;SDS011;9069;52.044;7.472;2023-09-30T01:43:33;10.75;;;2.65;;
17886;SDS011;9069;52.044;7.472;2023-09-30T01:46:03;6.22;;;2.50;;
17886;SDS011;9069;52.044;7.472;2023-09-30T01:48:32;6.63;;;2.70;;
17886;SDS011;9069;52.044;7.472;2023-09-30T01:50:59;10.75;;;3.03;;
17886;SDS011;9069;52.044;7.472;2023-09-30T01:53:25;8.35;;;2.58;;
17886;SDS011;9069;52.044;7.472;2023-09-30T01:55:52;10.55;;;3.72;;
17886;SDS011;9069;52.044;7.472;2023-09-30T01:58:19;13.05;;;3.00;;
17886;SDS011;9069;52.044;7.472;2023-09-30T02:00:46;8.55;;;2.95;;
17886;SDS011;9069;52.044;7.472;2023-09-30T02:03:13;14.05;;;3.38;;
17886;SDS011;9069;52.044;7.472;2023-09-30T02:05:40;6.20;;;2.63;;
17886;SDS011;9069;52.044;7.472;2023-09-30T02:08:07;16.75;;;3.50;;
17886;SDS011;9069;52.044;7.472;2023-09-30T02:10:34;9.57;;;3.10;;
17886;SDS011;9069;52.044;7.472;2023-09-30T02:13:01;8.65;;;2.70;;
17886;SDS011;9069;52.044;7.472;2023-09-30T02:15:32;8.35;;;3.22;;
17886;SDS011;9069;52.044;7.472;2023-09-30T02:17:59;13.05;;;2.80;;
17886;SDS011;9069;52.044;7.472;2023-09-30T02:20:27;8.13;;;3.05;;
17886;SDS011;9069;52.044;7.472;2023-09-30T02:22:57;7.90;;;2.95;;
17886;SDS011;9069;52.044;7.472;2023-09-30T02:25:26;10.98;;;3.30;;
17886;SDS011;9069;52.044;7.472;2023-09-30T02:27:53;8.20;;;3.40;;
17886;SDS011;9069;52.044;7.472;2023-09-30T02:30:20;10.10;;;2.90;;
17886;SDS011;9069;52.044;7.472;2023-09-30T02:32:47;7.25;;;2.55;;
17886;SDS011;9069;52.044;7.472;2023-09-30T02:35:14;8.23;;;2.72;;
17886;SDS011;9069;52.044;7.472;2023-09-30T02:37:41;5.97;;;2.80;;
17886;SDS011;9069;52.044;7.472;2023-09-30T02:40:09;6.88;;;2.58;;
17886;SDS011;9069;52.044;7.472;2023-09-30T02:42:37;10.95;;;2.67;;
17886;SDS011;9069;52.044;7.472;2023-09-30T02:45:05;7.35;;;2.28;;
17886;SDS011;9069;52.044;7.472;2023-09-30T02:47:34;9.63;;;2.60;;
17886;SDS011;9069;52.044;7.472;2023-09-30T02:50:01;8.60;;;2.65;;
17886;SDS011;9069;52.044;7.472;2023-09-30T02:52:30;13.90;;;2.75;;
17886;SDS011;9069;52.044;7.472;2023-09-30T02:55:00;6.38;;;2.90;;
17886;SDS011;9069;52.044;7.472;2023-09-30T02:57:29;10.20;;;2.83;;
17886;SDS011;9069;52.044;7.472;2023-09-30T02:59:57;8.82;;;3.55;;
17886;SDS011;9069;52.044;7.472;2023-09-30T03:02:28;10.80;;;3.75;;
17886;SDS011;9069;52.044;7.472;2023-09-30T03:04:55;15.00;;;5.70;;
17886;SDS011;9069;52.044;7.472;2023-09-30T03:07:24;8.48;;;4.95;;
17886;SDS011;9069;52.044;7.472;2023-09-30T03:09:51;12.13;;;5.30;;
17886;SDS011;9069;52.044;7.472;2023-09-30T03:12:19;6.80;;;3.70;;
17886;SDS011;9069;52.044;7.472;2023-09-30T03:14:46;12.88;;;5.00;;
17886;SDS011;9069;52.044;7.472;2023-09-30T03:17:13;15.15;;;5.05;;
17886;SDS011;9069;52.044;7.472;2023-09-30T03:19:40;9.45;;;4.03;;
17886;SDS011;9069;52.044;7.472;2023-09-30T03:22:06;9.20;;;3.83;;
17886;SDS011;9069;52.044;7.472;2023-09-30T03:24:38;9.93;;;3.45;;
17886;SDS011;9069;52.044;7.472;2023-09-30T03:27:06;7.72;;;3.28;;
17886;SDS011;9069;52.044;7.472;2023-09-30T03:29:37;6.15;;;2.97;;
17886;SDS011;9069;52.044;7.472;2023-09-30T03:32:05;9.85;;;3.40;;
17886;SDS011;9069;52.044;7.472;2023-09-30T03:34:33;8.07;;;3.15;;
17886;SDS011;9069;52.044;7.472;2023-09-30T03:37:02;8.52;;;3.28;;
17886;SDS011;9069;52.044;7.472;2023-09-30T03:39:33;11.52;;;3.53;;
17886;SDS011;9069;52.044;7.472;2023-09-30T03:42:04;8.45;;;3.40;;
17886;SDS011;9069;52.044;7.472;2023-09-30T03:44:32;5.97;;;3.10;;
17886;SDS011;9069;52.044;7.472;2023-09-30T03:46:59;8.07;;;3.22;;
17886;SDS011;9069;52.044;7.472;2023-09-30T03:49:28;5.93;;;3.20;;
17886;SDS011;9069;52.044;7.472;2023-09-30T03:51:55;11.88;;;3.63;;
17886;SDS011;9069;52.044;7.472;2023-09-30T03:54:21;8.57;;;2.90;;
17886;SDS011;9069;52.044;7.472;2023-09-30T03:56:49;7.55;;;3.35;;
17886;SDS011;9069;52.044;7.472;2023-09-30T03:59:15;8.48;;;3.88;;
17886;SDS011;9069;52.044;7.472;2023-09-30T04:01:42;14.57;;;3.90;;
17886;SDS011;9069;52.044;7.472;2023-09-30T04:04:10;9.32;;;4.15;;
17886;SDS011;9069;52.044;7.472;2023-09-30T04:06:37;9.98;;;3.75;;
17886;SDS011;9069;52.044;7.472;2023-09-30T04:09:05;10.95;;;3.92;;
17886;SDS011;9069;52.044;7.472;2023-09-30T04:11:36;10.73;;;3.78;;
17886;SDS011;9069;52.044;7.472;2023-09-30T04:14:04;8.32;;;3.42;;
17886;SDS011;9069;52.044;7.472;2023-09-30T04:16:34;9.95;;;3.40;;
17886;SDS011;9069;52.044;7.472;2023-09-30T04:19:02;6.38;;;3.17;;
17886;SDS011;9069;52.044;7.472;2023-09-30T04:21:28;5.95;;;2.85;;
17886;SDS011;9069;52.044;7.472;2023-09-30T04:23:58;8.57;;;2.97;;
17886;SDS011;9069;52.044;7.472;2023-09-30T04:26:25;10.98;;;2.85;;
17886;SDS011;9069;52.044;7.472;2023-09-30T04:28:52;8.63;;;2.72;;
17886;SDS011;9069;52.044;7.472;2023-09-30T04:31:22;7.00;;;3.17;;
17886;SDS011;9069;52.044;7.472;2023-09-30T04:33:50;11.07;;;2.70;;
17886;SDS011;9069;52.044;7.472;2023-09-30T04:36:20;8.85;;;3.17;;
17886;SDS011;9069;52.044;7.472;2023-09-30T04:38:48;6.85;;;2.55;;
17886;SDS011;9069;52.044;7.472;2023-09-30T04:41:14;6.38;;;2.53;;
17886;SDS011;9069;52.044;7.472;2023-09-30T04:43:42;7.97;;;2.70;;
17886;SDS011;9069;52.044;7.472;2023-09-30T04:46:09;7.53;;;3.22;;
17886;SDS011;9069;52.044;7.472;2023-09-30T04:48:39;8.20;;;2.72;;
17886;SDS011;9069;52.044;7.472;2023-09-30T04:51:07;8.35;;;3.33;;
17886;SDS011;9069;52.044;7.472;2023-09-30T04:53:35;7.47;;;3.03;;
17886;SDS011;9069;52.044;7.472;2023-09-30T04:56:03;11.23;;;3.17;;
17886;SDS011;9069;52.044;7.472;2023-09-30T04:58:30;5.10;;;2.60;;
17886;SDS011;9069;52.044;7.472;2023-09-30T05:00:57;7.45;;;3.47;;
17886;SDS011;9069;52.044;7.472;2023-09-30T05:03:24;7.85;;;3.05;;
17886;SDS011;9069;52.044;7.472;2023-09-30T05:05:52;7.95;;;3.75;;
17886;SDS011;9069;52.044;7.472;2023-09-30T05:08:22;7.10;;;3.10;;
17886;SDS011;9069;52.044;7.472;2023-09-30T05:10:50;6.80;;;2.78;;
17886;SDS011;9069;52.044;7.472;2023-09-30T05:13:16;8.48;;;3.10;;
17886;SDS011;9069;52.044;7.472;2023-09-30T05:15:44;7.88;;;2.88;;
17886;SDS011;9069;52.044;7.472;2023-09-30T05:18:12;7.72;;;3.50;;
17886;SDS011;9069;52.044;7.472;2023-09-30T05:20:40;8.98;;;3.05;;
17886;SDS011;9069;52.044;7.472;2023-09-30T05:23:07;7.60;;;3.15;;
17886;SDS011;9069;52.044;7.472;2023-09-30T05:25:34;10.02;;;3.78;;
17886;SDS011;9069;52.044;7.472;2023-09-30T05:28:02;8.60;;;3.65;;
17886;SDS011;9069;52.044;7.472;2023-09-30T05:30:29;5.60;;;3.22;;
17886;SDS011;9069;52.044;7.472;2023-09-30T05:32:56;10.95;;;3.60;;
17886;SDS011;9069;52.044;7.472;2023-09-30T05:35:25;9.80;;;3.60;;
17886;SDS011;9069;52.044;7.472;2023-09-30T05:37:52;7.75;;;3.55;;
17886;SDS011;9069;52.044;7.472;2023-09-30T05:40:20;7.53;;;3.20;;
17886;SDS011;9069;52.044;7.472;2023-09-30T05:42:53;9.10;;;3.47;;
17886;SDS011;9069;52.044;7.472;2023-09-30T05:45:22;9.07;;;3.47;;
17886;SDS011;9069;52.044;7.472;2023-09-30T05:47:55;6.30;;;3.15;;
17886;SDS011;9069;52.044;7.472;2023-09-30T05:50:23;8.18;;;3.67;;
17886;SDS011;9069;52.044;7.472;2023-09-30T05:52:52;8.18;;;3.10;;
17886;SDS011;9069;52.044;7.472;2023-09-30T05:55:21;8.25;;;3.83;;
17886;SDS011;9069;52.044;7.472;2023-09-30T05:57:49;8.52;;;2.97;;
17886;SDS011;9069;52.044;7.472;2023-09-30T06:00:16;8.90;;;3.55;;
17886;SDS011;9069;52.044;7.472;2023-09-30T06:02:51;9.05;;;3.28;;
17886;SDS011;9069;52.044;7.472;2023-09-30T06:05:19;9.07;;;3.90;;
17886;SDS011;9069;52.044;7.472;2023-09-30T06:07:46;7.75;;;4.22;;
17886;SDS011;9069;52.044;7.472;2023-09-30T06:10:13;7.90;;;3.80;;
17886;SDS011;9069;52.044;7.472;2023-09-30T06:12:50;9.23;;;4.20;;
17886;SDS011;9069;52.044;7.472;2023-09-30T06:15:21;9.52;;;4.22;;
17886;SDS011;9069;52.044;7.472;2023-09-30T06:17:52;7.38;;;3.72;;
17886;SDS011;9069;52.044;7.472;2023-09-30T06:20:20;7.32;;;3.53;;
17886;SDS011;9069;52.044;7.472;2023-09-30T06:22:49;9.73;;;4.10;;
17886;SDS011;9069;52.044;7.472;2023-09-30T06:25:16;9.63;;;3.70;;
17886;SDS011;9069;52.044;7.472;2023-09-30T06:27:44;8.00;;;3.60;;
17886;SDS011;9069;52.044;7.472;2023-09-30T06:30:12;6.68;;;3.40;;
17886;SDS011;9069;52.044;7.472;2023-09-30T06:32:42;9.18;;;4.15;;
17886;SDS011;9069;52.044;7.472;2023-09-30T06:35:10;8.73;;;3.75;;
17886;SDS011;9069;52.044;7.472;2023-09-30T06:37:40;12.10;;;4.22;;
17886;SDS011;9069;52.044;7.472;2023-09-30T06:40:08;10.85;;;4.68;;
17886;SDS011;9069;52.044;7.472;2023-09-30T06:42:38;9.07;;;4.40;;
17886;SDS011;9069;52.044;7.472;2023-09-30T06:45:06;9.43;;;4.80;;
17886;SDS011;9069;52.044;7.472;2023-09-30T06:47:36;9.20;;;4.03;;
17886;SDS011;9069;52.044;7.472;2023-09-30T06:50:05;8.73;;;3.55;;
17886;SDS011;9069;52.044;7.472;2023-09-30T06:52:43;7.70;;;3.83;;
17886;SDS011;9069;52.044;7.472;2023-09-30T06:55:15;6.53;;;3.75;;
17886;SDS011;9069;52.044;7.472;2023-09-30T06:57:45;8.82;;;3.90;;
17886;SDS011;9069;52.044;7.472;2023-09-30T07:00:13;9.75;;;4.30;;
17886;SDS011;9069;52.044;7.472;2023-09-30T07:02:41;6.57;;;3.47;;
17886;SDS011;9069;52.044;7.472;2023-09-30T07:05:09;6.53;;;3.40;;
17886;SDS011;9069;52.044;7.472;2023-09-30T07:07:38;10.30;;;4.38;;
17886;SDS011;9069;52.044;7.472;2023-09-30T07:10:05;16.42;;;4.03;;
17886;SDS011;9069;52.044;7.472;2023-09-30T07:12:33;9.35;;;4.05;;
17886;SDS011;9069;52.044;7.472;2023-09-30T07:15:02;10.43;;;4.68;;
17886;SDS011;9069;52.044;7.472;2023-09-30T07:17:31;8.27;;;4.43;;
17886;SDS011;9069;52.044;7.472;2023-09-30T07:19:59;10.60;;;4.82;;
17886;SDS011;9069;52.044;7.472;2023-09-30T07:22:28;8.05;;;4.30;;
17886;SDS011;9069;52.044;7.472;2023-09-30T07:25:09;7.57;;;4.00;;
17886;SDS011;9069;52.044;7.472;2023-09-30T07:27:36;13.32;;;3.88;;
17886;SDS011;9069;52.044;7.472;2023-09-30T07:30:03;9.85;;;4.22;;
17886;SDS011;9069;52.044;7.472;2023-09-30T07:32:32;10.45;;;4.72;;
17886;SDS011;9069;52.044;7.472;2023-09-30T07:34:59;9.85;;;3.78;;
17886;SDS011;9069;52.044;7.472;2023-09-30T07:37:27;7.13;;;3.90;;
17886;SDS011;9069;52.044;7.472;2023-09-30T07:39:54;11.60;;;4.90;;
17886;SDS011;9069;52.044;7.472;2023-09-30T07:42:22;6.88;;;3.92;;
17886;SDS011;9069;52.044;7.472;2023-09-30T07:44:50;6.90;;;3.75;;
17886;SDS011;9069;52.044;7.472;2023-09-30T07:47:17;11.13;;;4.10;;
17886;SDS011;9069;52.044;7.472;2023-09-30T07:49:43;6.00;;;3.80;;
17886;SDS011;9069;52.044;7.472;2023-09-30T07:52:10;12.93;;;3.75;;
17886;SDS011;9069;52.044;7.472;2023-09-30T07:54:37;9.00;;;3.88;;
17886;SDS011;9069;52.044;7.472;2023-09-30T07:57:04;7.47;;;3.33;;
17886;SDS011;9069;52.044;7.472;2023-09-30T07:59:30;9.48;;;3.58;;
17886;SDS011;9069;52.044;7.472;2023-09-30T08:02:01;4.90;;;3.13;;
17886;SDS011;9069;52.044;7.472;2023-09-30T08:04:31;8.27;;;3.40;;
17886;SDS011;9069;52.044;7.472;2023-09-30T08:06:58;12.43;;;4.00;;
17886;SDS011;9069;52.044;7.472;2023-09-30T08:09:25;10.18;;;3.65;;
17886;SDS011;9069;52.044;7.472;2023-09-30T08:11:55;9.20;;;3.85;;
17886;SDS011;9069;52.044;7.472;2023-09-30T08:14:22;7.60;;;3.72;;
17886;SDS011;9069;52.044;7.472;2023-09-30T08:16:49;7.97;;;3.60;;
17886;SDS011;9069;52.044;7.472;2023-09-30T08:19:16;5.50;;;3.13;;
17886;SDS011;9069;52.044;7.472;2023-09-30T08:21:43;7.40;;;3.25;;
17886;SDS011;9069;52.044;7.472;2023-09-30T08:24:10;7.57;;;3.35;;
17886;SDS011;9069;52.044;7.472;2023-09-30T08:26:36;7.28;;;2.90;;
17886;SDS011;9069;52.044;7.472;2023-09-30T08:29:04;8.60;;;3.50;;
17886;SDS011;9069;52.044;7.472;2023-09-30T08:31:32;4.82;;;2.88;;
17886;SDS011;9069;52.044;7.472;2023-09-30T08:33:59;7.60;;;3.53;;
17886;SDS011;9069;52.044;7.472;2023-09-30T08:36:27;7.00;;;3.28;;
17886;SDS011;9069;52.044;7.472;2023-09-30T08:38:54;7.28;;;3.47;;
17886;SDS011;9069;52.044;7.472;2023-09-30T08:41:29;6.78;;;3.03;;
17886;SDS011;9069;52.044;7.472;2023-09-30T08:44:02;9.82;;;3.28;;
17886;SDS011;9069;52.044;7.472;2023-09-30T08:46:30;6.72;;;3.28;;
17886;SDS011;9069;52.044;7.472;2023-09-30T08:49:00;8.05;;;3.75;;
17886;SDS011;9069;52.044;7.472;2023-09-30T08:51:29;5.88;;;2.80;;
17886;SDS011;9069;52.044;7.472;2023-09-30T08:53:57;7.45;;;3.17;;
17886;SDS011;9069;52.044;7.472;2023-09-30T08:56:29;5.78;;;2.65;;
17886;SDS011;9069;52.044;7.472;2023-09-30T08:58:59;5.10;;;2.80;;
17886;SDS011;9069;52.044;7.472;2023-09-30T09:01:29;8.40;;;3.67;;
17886;SDS011;9069;52.044;7.472;2023-09-30T09:03:57;6.68;;;2.75;;
17886;SDS011;9069;52.044;7.472;2023-09-30T09:06:25;7.63;;;3.03;;
17886;SDS011;9069;52.044;7.472;2023-09-30T09:08:52;5.88;;;3.08;;
17886;SDS011;9069;52.044;7.472;2023-09-30T09:11:19;7.60;;;2.83;;
17886;SDS011;9069;52.044;7.472;2023-09-30T09:13:47;8.02;;;2.97;;
17886;SDS011;9069;52.044;7.472;2023-09-30T09:16:16;8.10;;;2.75;;
17886;SDS011;9069;52.044;7.472;2023-09-30T09:18:45;8.88;;;3.55;;
17886;SDS011;9069;52.044;7.472;2023-09-30T09:21:20;11.02;;;3.38;;
17886;SDS011;9069;52.044;7.472;2023-09-30T09:23:53;5.97;;;3.47;;
17886;SDS011;9069;52.044;7.472;2023-09-30T09:26:29;10.65;;;3.25;;
17886;SDS011;9069;52.044;7.472;2023-09-30T09:28:59;6.57;;;3.08;;
17886;SDS011;9069;52.044;7.472;2023-09-30T09:31:33;5.35;;;3.13;;
17886;SDS011;9069;52.044;7.472;2023-09-30T09:34:02;6.07;;;3.22;;
17886;SDS011;9069;52.044;7.472;2023-09-30T09:36:42;9.32;;;3.17;;
17886;SDS011;9069;52.044;7.472;2023-09-30T09:39:10;11.07;;;3.60;;
17886;SDS011;9069;52.044;7.472;2023-09-30T09:41:53;6.82;;;3.38;;
17886;SDS011;9069;52.044;7.472;2023-09-30T09:44:22;8.52;;;3.00;;
17886;SDS011;9069;52.044;7.472;2023-09-30T09:46:51;6.65;;;3.15;;
17886;SDS011;9069;52.044;7.472;2023-09-30T09:49:18;8.02;;;3.50;;
17886;SDS011;9069;52.044;7.472;2023-09-30T09:51:46;8.73;;;3.58;;
17886;SDS011;9069;52.044;7.472;2023-09-30T09:54:15;10.32;;;3.28;;
17886;SDS011;9069;52.044;7.472;2023-09-30T09:56:43;4.93;;;3.38;;
17886;SDS011;9069;52.044;7.472;2023-09-30T09:59:11;4.97;;;2.90;;
17886;SDS011;9069;52.044;7.472;2023-09-30T10:01:39;6.70;;;3.13;;
17886;SDS011;9069;52.044;7.472;2023-09-30T10:04:07;7.38;;;3.72;;
17886;SDS011;9069;52.044;7.472;2023-09-30T10:06:37;5.38;;;3.00;;
17886;SDS011;9069;52.044;7.472;2023-09-30T10:09:09;8.35;;;3.13;;
17886;SDS011;9069;52.044;7.472;2023-09-30T10:11:42;5.75;;;3.47;;
17886;SDS011;9069;52.044;7.472;2023-09-30T10:14:09;6.97;;;3.28;;
17886;SDS011;9069;52.044;7.472;2023-09-30T10:16:56;8.02;;;2.78;;
17886;SDS011;9069;52.044;7.472;2023-09-30T10:19:23;6.15;;;3.00;;
17886;SDS011;9069;52.044;7.472;2023-09-30T10:24:51;7.93;;;3.65;;
17886;SDS011;9069;52.044;7.472;2023-09-30T10:35:20;8.77;;;2.65;;
17886;SDS011;9069;52.044;7.472;2023-09-30T10:37:47;12.40;;;3.40;;
17886;SDS011;9069;52.044;7.472;2023-09-30T10:40:30;6.32;;;2.85;;
17886;SDS011;9069;52.044;7.472;2023-09-30T10:42:59;5.68;;;3.33;;
17886;SDS011;9069;52.044;7.472;2023-09-30T10:50:55;5.07;;;2.78;;
17886;SDS011;9069;52.044;7.472;2023-09-30T10:53:27;7.70;;;3.50;;
17886;SDS011;9069;52.044;7.472;2023-09-30T10:55:55;7.60;;;2.95;;
17886;SDS011;9069;52.044;7.472;2023-09-30T10:58:42;7.25;;;2.63;;
17886;SDS011;9069;52.044;7.472;2023-09-30T11:01:12;6.05;;;2.85;;
17886;SDS011;9069;52.044;7.472;2023-09-30T11:03:41;5.70;;;2.53;;
17886;SDS011;9069;52.044;7.472;2023-09-30T11:06:10;5.93;;;2.65;;
17886;SDS011;9069;52.044;7.472;2023-09-30T11:08:46;6.95;;;2.53;;
17886;SDS011;9069;52.044;7.472;2023-09-30T11:11:37;6.15;;;2.42;;
17886;SDS011;9069;52.044;7.472;2023-09-30T11:14:25;6.10;;;2.40;;
17886;SDS011;9069;52.044;7.472;2023-09-30T11:16:56;8.88;;;2.70;;
17886;SDS011;9069;52.044;7.472;2023-09-30T11:19:27;9.10;;;2.10;;
17886;SDS011;9069;52.044;7.472;2023-09-30T11:22:02;5.13;;;2.17;;
17886;SDS011;9069;52.044;7.472;2023-09-30T11:24:29;4.60;;;2.38;;
17886;SDS011;9069;52.044;7.472;2023-09-30T11:27:02;7.75;;;2.95;;
17886;SDS011;9069;52.044;7.472;2023-09-30T11:29:30;6.70;;;2.55;;
17886;SDS011;9069;52.044;7.472;2023-09-30T11:31:57;10.38;;;2.42;;
17886;SDS011;9069;52.044;7.472;2023-09-30T11:34:34;6.53;;;2.22;;
17886;SDS011;9069;52.044;7.472;2023-09-30T11:37:05;4.18;;;1.65;;
17886;SDS011;9069;52.044;7.472;2023-09-30T11:39:32;7.07;;;2.08;;
17886;SDS011;9069;52.044;7.472;2023-09-30T11:42:00;2.97;;;1.60;;
17886;SDS011;9069;52.044;7.472;2023-09-30T11:44:27;6.90;;;2.10;;
17886;SDS011;9069;52.044;7.472;2023-09-30T11:46:57;8.38;;;2.47;;
17886;SDS011;9069;52.044;7.472;2023-09-30T11:49:39;5.13;;;2.78;;
17886;SDS011;9069;52.044;7.472;2023-09-30T11:52:07;5.53;;;2.13;;
17886;SDS011;9069;52.044;7.472;2023-09-30T11:54:36;7.82;;;3.05;;
17886;SDS011;9069;52.044;7.472;2023-09-30T11:57:16;5.20;;;2.15;;
17886;SDS011;9069;52.044;7.472;2023-09-30T11:59:45;4.22;;;2.20;;
17886;SDS011;9069;52.044;7.472;2023-09-30T12:02:12;7.55;;;2.10;;
17886;SDS011;9069;52.044;7.472;2023-09-30T12:04:44;6.07;;;2.30;;
17886;SDS011;9069;52.044;7.472;2023-09-30T12:07:14;12.65;;;2.20;;
17886;SDS011;9069;52.044;7.472;2023-09-30T12:09:41;7.55;;;2.35;;
17886;SDS011;9069;52.044;7.472;2023-09-30T12:12:08;7.25;;;1.95;;
17886;SDS011;9069;52.044;7.472;2023-09-30T12:14:36;6.10;;;2.13;;
17886;SDS011;9069;52.044;7.472;2023-09-30T12:17:03;7.78;;;2.22;;
17886;SDS011;9069;52.044;7.472;2023-09-30T12:19:30;2.20;;;1.50;;
17886;SDS011;9069;52.044;7.472;2023-09-30T12:21:57;4.07;;;1.67;;
17886;SDS011;9069;52.044;7.472;2023-09-30T12:24:24;5.70;;;2.30;;
17886;SDS011;9069;52.044;7.472;2023-09-30T12:26:53;6.75;;;2.05;;
17886;SDS011;9069;52.044;7.472;2023-09-30T12:29:21;10.45;;;2.20;;
17886;SDS011;9069;52.044;7.472;2023-09-30T12:31:50;2.53;;;1.85;;
17886;SDS011;9069;52.044;7.472;2023-09-30T12:34:21;4.40;;;2.40;;
17886;SDS011;9069;52.044;7.472;2023-09-30T12:36:53;4.82;;;2.30;;
17886;SDS011;9069;52.044;7.472;2023-09-30T12:39:22;3.70;;;1.98;;
17886;SDS011;9069;52.044;7.472;2023-09-30T12:41:52;6.93;;;2.22;;
17886;SDS011;9069;52.044;7.472;2023-09-30T12:44:19;5.72;;;2.30;;
17886;SDS011;9069;52.044;7.472;2023-09-30T12:46:46;4.57;;;2.33;;
17886;SDS011;9069;52.044;7.472;2023-09-30T12:49:13;4.70;;;2.00;;
17886;SDS011;9069;52.044;7.472;2023-09-30T12:51:40;4.20;;;2.00;;
17886;SDS011;9069;52.044;7.472;2023-09-30T12:54:08;5.05;;;1.92;;
17886;SDS011;9069;52.044;7.472;2023-09-30T12:56:35;5.78;;;1.67;;
17886;SDS011;9069;52.044;7.472;2023-09-30T12:59:02;4.15;;;1.67;;
17886;SDS011;9069;52.044;7.472;2023-09-30T13:01:29;3.65;;;1.70;;
17886;SDS011;9069;52.044;7.472;2023-09-30T13:04:01;4.05;;;1.85;;
17886;SDS011;9069;52.044;7.472;2023-09-30T13:06:28;5.45;;;1.77;;
17886;SDS011;9069;52.044;7.472;2023-09-30T13:08:58;4.32;;;1.73;;
17886;SDS011;9069;52.044;7.472;2023-09-30T13:11:26;5.22;;;1.88;;
17886;SDS011;9069;52.044;7.472;2023-09-30T13:13:54;4.68;;;1.75;;
17886;SDS011;9069;52.044;7.472;2023-09-30T13:16:21;4.85;;;1.95;;
17886;SDS011;9069;52.044;7.472;2023-09-30T13:18:48;6.30;;;1.88;;
17886;SDS011;9069;52.044;7.472;2023-09-30T13:21:18;5.13;;;1.95;;
17886;SDS011;9069;52.044;7.472;2023-09-30T13:23:45;5.35;;;2.08;;
17886;SDS011;9069;52.044;7.472;2023-09-30T13:26:11;2.83;;;1.63;;
17886;SDS011;9069;52.044;7.472;2023-09-30T13:28:38;4.95;;;2.40;;
17886;SDS011;9069;52.044;7.472;2023-09-30T13:31:05;6.57;;;1.98;;
17886;SDS011;9069;52.044;7.472;2023-09-30T13:33:33;5.18;;;2.20;;
17886;SDS011;9069;52.044;7.472;2023-09-30T13:36:00;4.45;;;1.63;;
17886;SDS011;9069;52.044;7.472;2023-09-30T13:38:31;5.03;;;2.22;;
17886;SDS011;9069;52.044;7.472;2023-09-30T13:40:58;5.15;;;1.90;;
17886;SDS011;9069;52.044;7.472;2023-09-30T13:43:24;4.10;;;1.92;;
17886;SDS011;9069;52.044;7.472;2023-09-30T13:45:52;5.40;;;1.90;;
17886;SDS011;9069;52.044;7.472;2023-09-30T13:48:19;4.75;;;2.00;;
17886;SDS011;9069;52.044;7.472;2023-09-30T13:50:46;6.68;;;2.15;;
17886;SDS011;9069;52.044;7.472;2023-09-30T13:53:13;4.45;;;2.00;;
17886;SDS011;9069;52.044;7.472;2023-09-30T13:55:41;7.03;;;2.13;;
17886;SDS011;9069;52.044;7.472;2023-09-30T13:58:08;6.85;;;2.10;;
17886;SDS011;9069;52.044;7.472;2023-09-30T14:00:35;6.85;;;2.05;;
17886;SDS011;9069;52.044;7.472;2023-09-30T14:03:02;4.95;;;1.88;;
17886;SDS011;9069;52.044;7.472;2023-09-30T14:05:29;7.22;;;2.00;;
17886;SDS011;9069;52.044;7.472;2023-09-30T14:07:56;6.07;;;2.33;;
17886;SDS011;9069;52.044;7.472;2023-09-30T14:10:24;6.40;;;1.67;;
17886;SDS011;9069;52.044;7.472;2023-09-30T14:12:50;5.57;;;1.70;;
17886;SDS011;9069;52.044;7.472;2023-09-30T14:15:17;6.55;;;1.85;;
17886;SDS011;9069;52.044;7.472;2023-09-30T14:17:44;5.03;;;1.83;;
17886;SDS011;9069;52.044;7.472;2023-09-30T14:20:11;3.67;;;1.63;;
17886;SDS011;9069;52.044;7.472;2023-09-30T14:22:38;4.70;;;1.90;;
17886;SDS011;9069;52.044;7.472;2023-09-30T14:25:05;8.57;;;1.90;;
17886;SDS011;9069;52.044;7.472;2023-09-30T14:27:33;4.28;;;1.70;;
17886;SDS011;9069;52.044;7.472;2023-09-30T14:30:00;7.57;;;1.90;;
17886;SDS011;9069;52.044;7.472;2023-09-30T14:32:27;3.42;;;1.80;;
17886;SDS011;9069;52.044;7.472;2023-09-30T14:34:54;4.35;;;1.52;;
17886;SDS011;9069;52.044;7.472;2023-09-30T14:37:21;3.60;;;1.50;;
17886;SDS011;9069;52.044;7.472;2023-09-30T14:39:48;5.97;;;2.10;;
17886;SDS011;9069;52.044;7.472;2023-09-30T14:42:15;20.92;;;2.60;;
17886;SDS011;9069;52.044;7.472;2023-09-30T14:44:42;4.80;;;1.92;;
17886;SDS011;9069;52.044;7.472;2023-09-30T14:47:08;5.25;;;1.92;;
17886;SDS011;9069;52.044;7.472;2023-09-30T14:49:35;5.53;;;2.35;;
17886;SDS011;9069;52.044;7.472;2023-09-30T14:52:03;4.25;;;1.60;;
17886;SDS011;9069;52.044;7.472;2023-09-30T14:54:31;3.90;;;1.73;;
17886;SDS011;9069;52.044;7.472;2023-09-30T14:56:58;6.07;;;2.00;;
17886;SDS011;9069;52.044;7.472;2023-09-30T14:59:25;5.32;;;1.67;;
17886;SDS011;9069;52.044;7.472;2023-09-30T15:01:51;6.18;;;1.55;;
17886;SDS011;9069;52.044;7.472;2023-09-30T15:04:19;4.00;;;1.90;;
17886;SDS011;9069;52.044;7.472;2023-09-30T15:06:46;6.00;;;1.83;;
17886;SDS011;9069;52.044;7.472;2023-09-30T15:09:13;4.07;;;1.40;;
17886;SDS011;9069;52.044;7.472;2023-09-30T15:11:42;6.10;;;1.83;;
17886;SDS011;9069;52.044;7.472;2023-09-30T15:14:09;3.95;;;1.65;;
17886;SDS011;9069;52.044;7.472;2023-09-30T15:16:35;5.90;;;2.00;;
17886;SDS011;9069;52.044;7.472;2023-09-30T15:19:02;5.80;;;1.88;;
17886;SDS011;9069;52.044;7.472;2023-09-30T15:21:29;6.95;;;1.77;;
17886;SDS011;9069;52.044;7.472;2023-09-30T15:23:56;5.18;;;2.05;;